Time;durP1;ratioP1;P1;durP2;ratioP2;P2;SDS_P1;SDS_P2;PMS_P1;PMS_P2;Temp;Humidity;BMP_temperature;BMP_pressure;BME280_temperature;BME280_humidity;BME280_pressure;Samples;Min_cycle;Max_cycle;Signal;HPM_P1;HPM_P2
2022/08/25 00:02:12;;;;;;;16.50;12.40;;;;;;;;;;108407;1307;22411;-29
2022/08/25 00:04:37;;;;;;;10.20;8.70;;;;;;;;;;108457;1299;22402;-28
2022/08/25 00:07:03;;;;;;;9.40;8.40;;;;;;;;;;108219;1299;25256;-24
2022/08/25 00:09:29;;;;;;;13.00;11.30;;;;;;;;;;108196;1301;22579;-29
2022/08/25 00:11:55;;;;;;;14.20;9.60;;;;;;;;;;108404;1291;22806;-28
2022/08/25 00:14:22;;;;;;;23.80;10.70;;;;;;;;;;108478;1299;22954;-28
2022/08/25 00:16:47;;;;;;;13.40;9.90;;;;;;;;;;108446;1299;23005;-24
2022/08/25 00:19:14;;;;;;;10.20;9.10;;;;;;;;;;108456;1307;23573;-24
2022/08/25 00:21:40;;;;;;;19.90;11.20;;;;;;;;;;108495;1299;23304;-25
2022/08/25 00:24:07;;;;;;;14.10;11.20;;;;;;;;;;108453;1299;22400;-24
2022/08/25 00:26:33;;;;;;;13.40;11.20;;;;;;;;;;108501;1299;23234;-29
2022/08/25 00:28:58;;;;;;;17.50;11.20;;;;;;;;;;108414;1307;22398;-25
2022/08/25 00:31:25;;;;;;;15.10;11.70;;;;;;;;;;108465;1306;23158;-24
2022/08/25 00:33:50;;;;;;;15.60;12.30;;;;;;;;;;107771;1299;22539;-28
2022/08/25 00:36:16;;;;;;;16.30;11.70;;;;;;;;;;108465;1299;23221;-24
2022/08/25 00:38:42;;;;;;;15.30;11.60;;;;;;;;;;108481;1299;22443;-28
2022/08/25 00:41:09;;;;;;;25.30;14.20;;;;;;;;;;108486;1299;23191;-24
2022/08/25 00:43:39;;;;;;;21.50;18.30;;;;;;;;;;108444;1299;23473;-28
2022/08/25 00:46:04;;;;;;;16.30;10.30;;;;;;;;;;108306;1299;24603;-28
2022/08/25 00:48:30;;;;;;;11.90;10.70;;;;;;;;;;108299;1307;22513;-28
2022/08/25 00:50:55;;;;;;;13.60;12.10;;;;;;;;;;108485;1299;22261;-24
2022/08/25 00:53:21;;;;;;;12.20;9.90;;;;;;;;;;108469;1299;22475;-24
2022/08/25 00:55:46;;;;;;;12.50;10.30;;;;;;;;;;108455;1299;22453;-26
2022/08/25 00:58:14;;;;;;;11.10;9.90;;;;;;;;;;108475;1299;23076;-24
2022/08/25 01:00:41;;;;;;;9.70;8.60;;;;;;;;;;108457;1299;23035;-28
2022/08/25 01:03:07;;;;;;;10.80;7.60;;;;;;;;;;108439;1299;22532;-24
2022/08/25 01:05:33;;;;;;;12.60;11.10;;;;;;;;;;108067;1301;23250;-28
2022/08/25 01:07:59;;;;;;;9.60;8.20;;;;;;;;;;108470;1299;22813;-24
2022/08/25 01:10:25;;;;;;;18.20;10.60;;;;;;;;;;108473;1299;22385;-24
2022/08/25 01:12:50;;;;;;;13.80;9.60;;;;;;;;;;108422;1306;23199;-30
2022/08/25 01:15:17;;;;;;;18.40;10.10;;;;;;;;;;108475;1299;22429;-24
2022/08/25 01:17:45;;;;;;;11.40;9.20;;;;;;;;;;108403;1291;22540;-24
2022/08/25 01:20:13;;;;;;;16.40;11.00;;;;;;;;;;107289;1301;25341;-28
2022/08/25 01:22:38;;;;;;;9.20;6.50;;;;;;;;;;108286;1301;22529;-28
2022/08/25 01:25:06;;;;;;;10.30;9.30;;;;;;;;;;108293;1299;22524;-24
2022/08/25 01:27:32;;;;;;;10.90;9.80;;;;;;;;;;107567;1307;22890;-27
2022/08/25 01:29:58;;;;;;;11.80;10.00;;;;;;;;;;108473;1299;23225;-25
2022/08/25 01:32:23;;;;;;;15.70;12.00;;;;;;;;;;108474;1299;22559;-26
2022/08/25 01:34:49;;;;;;;11.70;9.10;;;;;;;;;;108470;1300;22397;-29
2022/08/25 01:37:14;;;;;;;11.10;8.20;;;;;;;;;;108499;1299;23317;-25
2022/08/25 01:39:40;;;;;;;20.00;11.00;;;;;;;;;;108448;1299;22410;-25
2022/08/25 01:42:18;;;;;;;11.70;8.60;;;;;;;;;;108318;1299;23235;-29
2022/08/25 01:44:43;;;;;;;15.10;11.60;;;;;;;;;;108543;1299;22448;-25
2022/08/25 01:47:09;;;;;;;13.20;10.90;;;;;;;;;;108483;1299;23023;-30
2022/08/25 01:49:35;;;;;;;11.30;9.80;;;;;;;;;;108433;1307;22954;-27
2022/08/25 01:52:04;;;;;;;13.90;10.40;;;;;;;;;;107708;1299;22480;-29
2022/08/25 01:54:30;;;;;;;16.40;10.70;;;;;;;;;;108352;1299;22546;-24
2022/08/25 01:56:56;;;;;;;7.60;6.00;;;;;;;;;;108458;1299;22404;-28
2022/08/25 01:59:22;;;;;;;13.80;6.60;;;;;;;;;;108459;1299;23178;-28
2022/08/25 02:01:47;;;;;;;13.10;6.80;;;;;;;;;;108339;1307;25248;-24
2022/08/25 02:04:13;;;;;;;11.00;6.50;;;;;;;;;;108439;1301;23067;-24
2022/08/25 02:06:39;;;;;;;10.30;8.30;;;;;;;;;;108426;1299;22555;-24
2022/08/25 02:09:06;;;;;;;11.90;6.70;;;;;;;;;;108431;1299;22533;-28
2022/08/25 02:11:32;;;;;;;31.60;6.40;;;;;;;;;;108440;1299;22456;-25
2022/08/25 02:13:58;;;;;;;26.40;7.00;;;;;;;;;;108370;1299;22542;-28
2022/08/25 02:16:27;;;;;;;10.60;9.60;;;;;;;;;;108408;1299;25233;-28
2022/08/25 02:18:53;;;;;;;10.20;6.80;;;;;;;;;;108456;1299;22440;-28
2022/08/25 02:21:18;;;;;;;10.30;8.20;;;;;;;;;;108440;1300;22403;-28
2022/08/25 02:23:44;;;;;;;26.20;8.30;;;;;;;;;;108417;1299;23189;-24
2022/08/25 02:26:09;;;;;;;11.40;5.30;;;;;;;;;;108494;1299;22544;-24
2022/08/25 02:28:36;;;;;;;12.60;6.50;;;;;;;;;;108409;1299;22563;-24
2022/08/25 02:31:02;;;;;;;7.30;6.60;;;;;;;;;;108423;1299;23238;-24
2022/08/25 02:33:28;;;;;;;8.70;6.20;;;;;;;;;;108428;1299;23123;-25
2022/08/25 02:35:56;;;;;;;7.30;6.30;;;;;;;;;;108471;1299;23215;-24
2022/08/25 02:38:21;;;;;;;8.30;6.70;;;;;;;;;;108472;1299;22575;-28
2022/08/25 02:40:46;;;;;;;11.00;7.20;;;;;;;;;;108440;1307;23264;-28
2022/08/25 02:43:12;;;;;;;9.10;6.70;;;;;;;;;;108431;1299;23435;-28
2022/08/25 02:45:38;;;;;;;14.30;8.80;;;;;;;;;;108473;1299;23312;-28
2022/08/25 02:48:03;;;;;;;11.00;5.80;;;;;;;;;;108512;1299;22463;-28
2022/08/25 02:50:29;;;;;;;8.50;7.70;;;;;;;;;;108438;1299;23272;-28
2022/08/25 02:52:54;;;;;;;11.40;6.80;;;;;;;;;;108450;1299;23358;-24
2022/08/25 02:55:20;;;;;;;26.00;7.10;;;;;;;;;;108489;1299;22454;-28
2022/08/25 02:57:46;;;;;;;13.10;6.80;;;;;;;;;;108465;1299;22453;-24
2022/08/25 03:00:13;;;;;;;7.40;6.10;;;;;;;;;;108450;1299;22066;-24
2022/08/25 03:02:40;;;;;;;22.20;5.70;;;;;;;;;;108174;1307;23365;-24
2022/08/25 03:05:06;;;;;;;13.70;4.80;;;;;;;;;;108453;1299;23079;-28
2022/08/25 03:07:33;;;;;;;30.70;5.70;;;;;;;;;;108480;1299;23326;-28
2022/08/25 03:09:58;;;;;;;7.80;5.40;;;;;;;;;;108459;1299;22404;-24
2022/08/25 03:12:24;;;;;;;25.90;5.90;;;;;;;;;;108257;1307;23184;-28
2022/08/25 03:14:49;;;;;;;19.50;4.90;;;;;;;;;;108077;1299;23569;-28
2022/08/25 03:17:15;;;;;;;5.90;5.40;;;;;;;;;;108336;1299;22308;-28
2022/08/25 03:19:40;;;;;;;5.30;4.90;;;;;;;;;;108359;1299;22549;-24
2022/08/25 03:22:06;;;;;;;5.00;4.20;;;;;;;;;;108447;1299;23143;-28
2022/08/25 03:24:31;;;;;;;5.60;4.80;;;;;;;;;;108458;1299;23274;-28
2022/08/25 03:26:56;;;;;;;5.20;4.80;;;;;;;;;;108476;1299;23783;-28
2022/08/25 03:29:23;;;;;;;6.20;5.70;;;;;;;;;;108477;1299;22521;-29
2022/08/25 03:31:49;;;;;;;5.40;4.70;;;;;;;;;;108470;1307;22430;-28
2022/08/25 03:34:15;;;;;;;5.90;5.40;;;;;;;;;;108491;1299;23153;-29
2022/08/25 03:36:41;;;;;;;10.00;8.40;;;;;;;;;;108451;1299;22462;-25
2022/08/25 03:39:07;;;;;;;21.80;19.30;;;;;;;;;;108434;1299;22418;-28
2022/08/25 03:41:32;;;;;;;11.70;10.70;;;;;;;;;;108450;1306;22542;-24
2022/08/25 03:43:58;;;;;;;16.90;15.30;;;;;;;;;;108461;1306;23335;-25
2022/08/25 03:46:25;;;;;;;13.40;8.60;;;;;;;;;;108458;1299;22504;-24
2022/08/25 03:48:51;;;;;;;13.00;11.80;;;;;;;;;;108286;1301;22394;-29
2022/08/25 03:51:20;;;;;;;24.10;20.80;;;;;;;;;;107906;1299;22527;-29
2022/08/25 03:53:45;;;;;;;14.80;13.50;;;;;;;;;;107824;1303;23285;-28
2022/08/25 03:56:11;;;;;;;10.00;5.60;;;;;;;;;;108469;1307;23175;-28
2022/08/25 03:58:36;;;;;;;18.80;6.70;;;;;;;;;;108473;1299;22759;-24
2022/08/25 04:01:02;;;;;;;10.40;7.10;;;;;;;;;;108427;1299;23232;-24
2022/08/25 04:03:27;;;;;;;10.80;6.60;;;;;;;;;;108404;1299;22525;-25
2022/08/25 04:05:53;;;;;;;8.80;6.40;;;;;;;;;;108517;1299;23071;-29
2022/08/25 04:08:18;;;;;;;11.90;6.90;;;;;;;;;;108465;1299;23153;-28
2022/08/25 04:10:44;;;;;;;10.30;8.70;;;;;;;;;;108338;1306;22562;-25
2022/08/25 04:13:11;;;;;;;15.40;8.40;;;;;;;;;;108401;1299;23188;-25
2022/08/25 04:15:36;;;;;;;22.10;10.20;;;;;;;;;;108455;1299;22535;-24
2022/08/25 04:18:02;;;;;;;27.80;16.00;;;;;;;;;;108458;1306;23375;-28
2022/08/25 04:20:28;;;;;;;23.10;15.80;;;;;;;;;;107728;1299;1002384;-24
2022/08/25 04:22:54;;;;;;;15.20;12.10;;;;;;;;;;108432;1299;22337;-24
2022/08/25 04:25:20;;;;;;;14.50;12.10;;;;;;;;;;108404;1307;22571;-24
2022/08/25 04:27:45;;;;;;;16.40;11.80;;;;;;;;;;108452;1299;23189;-25
2022/08/25 04:30:11;;;;;;;14.80;10.70;;;;;;;;;;108285;1299;23056;-28
2022/08/25 04:32:37;;;;;;;11.20;10.00;;;;;;;;;;108450;1299;22407;-24
2022/08/25 04:35:04;;;;;;;13.50;8.60;;;;;;;;;;108356;1300;22496;-28
2022/08/25 04:37:29;;;;;;;21.30;10.30;;;;;;;;;;108180;1307;22401;-24
2022/08/25 04:39:55;;;;;;;28.20;18.00;;;;;;;;;;108454;1299;23148;-24
2022/08/25 04:42:21;;;;;;;18.00;12.80;;;;;;;;;;108446;1299;22578;-25
2022/08/25 04:44:46;;;;;;;17.40;12.90;;;;;;;;;;108320;1299;23241;-29
2022/08/25 04:47:12;;;;;;;29.10;19.10;;;;;;;;;;107867;1301;22839;-24
2022/08/25 04:49:38;;;;;;;15.30;6.50;;;;;;;;;;108238;1307;22534;-27
2022/08/25 04:52:04;;;;;;;17.30;5.80;;;;;;;;;;108315;1299;23183;-28
2022/08/25 04:54:30;;;;;;;14.30;5.60;;;;;;;;;;108429;1299;23145;-28
2022/08/25 04:56:55;;;;;;;20.30;6.30;;;;;;;;;;108428;1299;23308;-24
2022/08/25 04:59:21;;;;;;;21.00;7.50;;;;;;;;;;108345;1299;22317;-24
2022/08/25 05:01:47;;;;;;;7.70;5.90;;;;;;;;;;108444;1299;23456;-29
2022/08/25 05:04:13;;;;;;;9.30;5.00;;;;;;;;;;108419;1299;23204;-26
2022/08/25 05:06:39;;;;;;;8.30;4.70;;;;;;;;;;108355;1299;22573;-29
2022/08/25 05:09:05;;;;;;;9.30;6.20;;;;;;;;;;108446;1299;23224;-25
2022/08/25 05:11:31;;;;;;;9.40;7.10;;;;;;;;;;108469;1299;23074;-29
2022/08/25 05:13:56;;;;;;;8.60;6.00;;;;;;;;;;108444;1299;23277;-25
2022/08/25 05:16:22;;;;;;;22.40;9.60;;;;;;;;;;108418;1299;22547;-25
2022/08/25 05:18:49;;;;;;;12.00;9.90;;;;;;;;;;108120;1301;22341;-29
2022/08/25 05:21:17;;;;;;;15.90;13.90;;;;;;;;;;108451;1299;22488;-29
2022/08/25 05:23:42;;;;;;;22.90;13.60;;;;;;;;;;108080;1299;22551;-25
2022/08/25 05:26:09;;;;;;;21.80;16.50;;;;;;;;;;108286;1301;22401;-25
2022/08/25 05:28:35;;;;;;;22.70;13.60;;;;;;;;;;108438;1299;23253;-29
2022/08/25 05:31:01;;;;;;;15.40;12.00;;;;;;;;;;108441;1291;22542;-26
2022/08/25 05:33:27;;;;;;;13.70;8.60;;;;;;;;;;107866;1299;558920;-29
2022/08/25 05:35:54;;;;;;;7.70;6.60;;;;;;;;;;108400;1299;22207;-25
2022/08/25 05:38:19;;;;;;;13.60;4.90;;;;;;;;;;108441;1299;23438;-29
2022/08/25 05:40:45;;;;;;;5.50;4.00;;;;;;;;;;108482;1299;22551;-24
2022/08/25 05:43:13;;;;;;;12.10;5.00;;;;;;;;;;108525;1299;23208;-29
2022/08/25 05:45:39;;;;;;;13.70;5.30;;;;;;;;;;108384;1286;22439;-29
2022/08/25 05:48:04;;;;;;;7.70;4.10;;;;;;;;;;108406;1299;22465;-29
2022/08/25 05:50:30;;;;;;;11.80;4.10;;;;;;;;;;108227;1299;23307;-28
2022/08/25 05:52:55;;;;;;;11.10;4.80;;;;;;;;;;108421;1299;23256;-28
2022/08/25 05:55:21;;;;;;;6.70;4.70;;;;;;;;;;108422;1299;23134;-24
2022/08/25 05:57:47;;;;;;;5.60;2.90;;;;;;;;;;108454;1299;22528;-24
2022/08/25 06:00:13;;;;;;;5.50;4.30;;;;;;;;;;108410;1307;23107;-30
2022/08/25 06:02:42;;;;;;;14.00;4.70;;;;;;;;;;108437;1299;22534;-26
2022/08/25 06:05:10;;;;;;;11.10;4.70;;;;;;;;;;108230;1292;22537;-26
2022/08/25 06:07:36;;;;;;;10.90;4.70;;;;;;;;;;107829;1301;23167;-26
2022/08/25 06:10:03;;;;;;;6.60;4.70;;;;;;;;;;108088;1299;23067;-29
2022/08/25 06:12:29;;;;;;;4.60;3.50;;;;;;;;;;108458;1299;22778;-29
2022/08/25 06:14:55;;;;;;;6.80;4.20;;;;;;;;;;108402;1299;23250;-24
2022/08/25 06:17:21;;;;;;;15.60;4.30;;;;;;;;;;108264;1301;22602;-24
2022/08/25 06:19:48;;;;;;;11.70;3.50;;;;;;;;;;108388;1299;23201;-28
2022/08/25 06:22:13;;;;;;;8.30;3.90;;;;;;;;;;108395;1299;22769;-28
2022/08/25 06:24:40;;;;;;;5.70;2.70;;;;;;;;;;108409;1299;23329;-27
2022/08/25 06:27:05;;;;;;;6.30;3.20;;;;;;;;;;108437;1307;22418;-28
2022/08/25 06:29:31;;;;;;;17.40;6.10;;;;;;;;;;108455;1285;22388;-28
2022/08/25 06:31:56;;;;;;;7.20;4.00;;;;;;;;;;108352;1301;23205;-28
2022/08/25 06:34:22;;;;;;;11.50;5.80;;;;;;;;;;108449;1299;22742;-24
2022/08/25 06:36:49;;;;;;;20.60;5.90;;;;;;;;;;108407;1307;22520;-24
2022/08/25 06:39:14;;;;;;;11.30;4.60;;;;;;;;;;108238;1307;25203;-28
2022/08/25 06:41:40;;;;;;;16.30;5.10;;;;;;;;;;108448;1299;22458;-28
2022/08/25 06:44:06;;;;;;;13.80;5.50;;;;;;;;;;108463;1299;22550;-26
2022/08/25 06:46:31;;;;;;;21.30;4.20;;;;;;;;;;108358;1299;22346;-30
2022/08/25 06:48:57;;;;;;;5.90;3.30;;;;;;;;;;108436;1307;22446;-30
2022/08/25 06:51:23;;;;;;;11.90;3.70;;;;;;;;;;108396;1307;22461;-30
2022/08/25 06:53:49;;;;;;;10.80;4.60;;;;;;;;;;108411;1299;23385;-28
2022/08/25 06:56:15;;;;;;;14.70;4.10;;;;;;;;;;108492;1295;23338;-24
2022/08/25 06:58:41;;;;;;;16.50;4.70;;;;;;;;;;108411;1307;22545;-24
2022/08/25 07:01:06;;;;;;;10.20;3.00;;;;;;;;;;108443;1299;22580;-24
2022/08/25 07:03:32;;;;;;;11.40;2.70;;;;;;;;;;108382;1299;22401;-26
2022/08/25 07:05:57;;;;;;;9.60;3.60;;;;;;;;;;108429;1299;22574;-24
2022/08/25 07:08:23;;;;;;;6.00;3.00;;;;;;;;;;108397;1299;23394;-24
2022/08/25 07:10:48;;;;;;;8.00;2.70;;;;;;;;;;108443;1299;23178;-28
2022/08/25 07:13:14;;;;;;;5.50;2.30;;;;;;;;;;108372;1307;23166;-24
2022/08/25 07:15:40;;;;;;;7.30;2.50;;;;;;;;;;108450;1299;23332;-24
2022/08/25 07:18:06;;;;;;;13.70;3.20;;;;;;;;;;108435;1300;23074;-28
2022/08/25 07:20:33;;;;;;;5.70;2.80;;;;;;;;;;108424;1299;22412;-25
2022/08/25 07:22:59;;;;;;;4.50;2.20;;;;;;;;;;108488;1299;23208;-24
2022/08/25 07:25:25;;;;;;;7.10;2.10;;;;;;;;;;108287;1301;23829;-28
2022/08/25 07:27:50;;;;;;;6.30;2.20;;;;;;;;;;107907;1299;25420;-28
2022/08/25 07:30:16;;;;;;;15.90;2.30;;;;;;;;;;108038;1301;23315;-29
2022/08/25 07:32:43;;;;;;;6.30;2.80;;;;;;;;;;108336;1301;22548;-29
2022/08/25 07:37:39;;;;;;;8.00;2.30;;;;;;;;;;108386;1299;22563;-29
2022/08/25 07:40:05;;;;;;;10.00;2.70;;;;;;;;;;108278;1299;25162;-24
2022/08/25 07:42:31;;;;;;;5.30;1.80;;;;;;;;;;108289;1299;22657;-27
2022/08/25 07:44:56;;;;;;;11.10;2.50;;;;;;;;;;108402;1299;22626;-28
2022/08/25 07:47:22;;;;;;;8.20;1.70;;;;;;;;;;108372;1307;23089;-24
2022/08/25 07:49:49;;;;;;;7.50;2.30;;;;;;;;;;108259;1307;22556;-28
2022/08/25 07:52:15;;;;;;;14.40;2.00;;;;;;;;;;108283;1299;22472;-27
2022/08/25 07:54:40;;;;;;;7.70;1.70;;;;;;;;;;107970;1307;23078;-28
2022/08/25 07:57:06;;;;;;;10.90;1.70;;;;;;;;;;108453;1307;23066;-28
2022/08/25 07:59:31;;;;;;;13.60;2.40;;;;;;;;;;108409;1299;23399;-28
2022/08/25 08:01:57;;;;;;;5.20;1.50;;;;;;;;;;108274;1299;23302;-23
2022/08/25 08:04:23;;;;;;;9.30;1.80;;;;;;;;;;108191;1299;25228;-23
2022/08/25 08:06:48;;;;;;;15.60;1.80;;;;;;;;;;107590;1307;23118;-23
2022/08/25 08:09:15;;;;;;;5.80;2.60;;;;;;;;;;108330;1299;23244;-23
2022/08/25 08:11:43;;;;;;;15.70;1.80;;;;;;;;;;108432;1299;22520;-28
2022/08/25 08:14:09;;;;;;;10.20;3.70;;;;;;;;;;108291;1299;23294;-28
2022/08/25 08:16:34;;;;;;;3.40;1.30;;;;;;;;;;108431;1285;22802;-28
2022/08/25 08:19:01;;;;;;;8.80;2.20;;;;;;;;;;108432;1299;23312;-28
2022/08/25 08:21:28;;;;;;;8.90;2.00;;;;;;;;;;107519;1299;22547;-24
2022/08/25 08:23:54;;;;;;;7.10;2.40;;;;;;;;;;108374;1306;22341;-24
2022/08/25 08:26:19;;;;;;;14.60;1.70;;;;;;;;;;108421;1299;22910;-25
2022/08/25 08:28:45;;;;;;;12.60;3.10;;;;;;;;;;108438;1299;22531;-25
2022/08/25 08:31:10;;;;;;;10.00;1.60;;;;;;;;;;108326;1299;23393;-29
2022/08/25 08:33:36;;;;;;;12.20;2.40;;;;;;;;;;108387;1299;23544;-28
2022/08/25 08:36:03;;;;;;;6.20;1.80;;;;;;;;;;108343;1299;23219;-28
2022/08/25 08:38:29;;;;;;;23.20;2.60;;;;;;;;;;108429;1299;22471;-29
2022/08/25 08:42:15;;;;;;;20.50;2.40;;;;;;;;;;108192;1299;25245;-24
2022/08/25 08:43:41;;;;;;;5.40;1.70;;;;;;;;;;107776;1299;23221;-24
2022/08/25 08:46:06;;;;;;;7.50;2.90;;;;;;;;;;108318;1299;23289;-28
2022/08/25 08:48:35;;;;;;;9.20;2.40;;;;;;;;;;108241;1301;22532;-24
2022/08/25 08:51:06;;;;;;;5.10;2.30;;;;;;;;;;108412;1299;23394;-28
2022/08/25 08:53:33;;;;;;;16.80;2.90;;;;;;;;;;108416;1299;23232;-24
2022/08/25 08:56:00;;;;;;;11.30;2.30;;;;;;;;;;108421;1300;23212;-29
2022/08/25 08:58:29;;;;;;;8.40;2.60;;;;;;;;;;108404;1299;22047;-25
2022/08/25 09:00:57;;;;;;;12.20;3.50;;;;;;;;;;108387;1299;22431;-29
2022/08/25 09:03:25;;;;;;;16.20;2.70;;;;;;;;;;108279;1299;23178;-29
2022/08/25 09:05:52;;;;;;;13.40;3.40;;;;;;;;;;108398;1299;23666;-29
2022/08/25 09:08:17;;;;;;;28.70;2.80;;;;;;;;;;108433;1299;23209;-24
2022/08/25 09:10:46;;;;;;;12.00;1.90;;;;;;;;;;108420;1299;23087;-24
2022/08/25 09:13:16;;;;;;;4.80;1.80;;;;;;;;;;108439;1299;22341;-25
2022/08/25 09:18:18;;;;;;;12.60;1.50;;;;;;;;;;108418;1284;23130;-24
2022/08/25 09:20:46;;;;;;;7.80;1.50;;;;;;;;;;108379;1301;22492;-29
2022/08/25 09:23:15;;;;;;;16.40;3.40;;;;;;;;;;108247;1285;22769;-29
2022/08/25 09:25:44;;;;;;;12.70;1.70;;;;;;;;;;108452;1299;22771;-29
2022/08/25 09:28:13;;;;;;;15.40;2.70;;;;;;;;;;108440;1299;22451;-29
2022/08/25 09:30:44;;;;;;;7.80;2.60;;;;;;;;;;108202;1301;22440;-29
2022/08/25 09:33:09;;;;;;;7.40;1.60;;;;;;;;;;108275;1301;23793;-25
2022/08/25 09:35:35;;;;;;;8.20;2.40;;;;;;;;;;108443;1299;23360;-24
2022/08/25 09:38:02;;;;;;;13.50;2.40;;;;;;;;;;108388;1299;22546;-25
2022/08/25 09:40:30;;;;;;;8.50;1.80;;;;;;;;;;108113;1307;22547;-24
2022/08/25 09:42:57;;;;;;;12.40;2.60;;;;;;;;;;108264;1299;23151;-29
2022/08/25 09:45:26;;;;;;;20.90;2.10;;;;;;;;;;108425;1299;22488;-29
2022/08/25 09:47:51;;;;;;;24.20;3.00;;;;;;;;;;108167;1299;22074;-25
2022/08/25 09:50:17;;;;;;;15.60;2.70;;;;;;;;;;108428;1299;23104;-25
2022/08/25 09:52:43;;;;;;;18.80;2.30;;;;;;;;;;108396;1299;22589;-22
2022/08/25 09:55:19;;;;;;;31.40;2.70;;;;;;;;;;108384;1299;22572;-25
2022/08/25 09:57:45;;;;;;;12.30;2.90;;;;;;;;;;108424;1301;22334;-29
2022/08/25 10:00:14;;;;;;;7.90;3.70;;;;;;;;;;108406;1300;22556;-29
2022/08/25 10:02:41;;;;;;;14.70;3.00;;;;;;;;;;108431;1307;25255;-29
2022/08/25 10:05:16;;;;;;;18.70;3.00;;;;;;;;;;108345;1299;22526;-28
2022/08/25 10:07:47;;;;;;;11.80;2.90;;;;;;;;;;108454;1299;22549;-29
2022/08/25 10:10:17;;;;;;;11.60;2.90;;;;;;;;;;108504;1299;23259;-29
2022/08/25 10:12:43;;;;;;;18.30;2.40;;;;;;;;;;108428;1301;23262;-24
2022/08/25 10:15:12;;;;;;;33.60;3.90;;;;;;;;;;108229;1291;24840;-24
2022/08/25 10:17:38;;;;;;;12.70;2.10;;;;;;;;;;108058;1305;25258;-25
2022/08/25 10:20:07;;;;;;;12.70;3.00;;;;;;;;;;108294;1299;22506;-29
2022/08/25 10:22:33;;;;;;;22.40;3.80;;;;;;;;;;108205;1299;22537;-29
2022/08/25 10:24:59;;;;;;;18.40;3.90;;;;;;;;;;108237;1294;22399;-25
2022/08/25 10:27:28;;;;;;;17.20;2.80;;;;;;;;;;108442;1307;22471;-24
2022/08/25 10:29:57;;;;;;;20.90;4.60;;;;;;;;;;108395;1306;22558;-29
2022/08/25 10:32:27;;;;;;;17.20;4.40;;;;;;;;;;108457;1299;23319;-26
2022/08/25 10:34:53;;;;;;;20.60;2.90;;;;;;;;;;108429;1301;23126;-25
2022/08/25 10:37:22;;;;;;;23.70;3.40;;;;;;;;;;108442;1299;22537;-29
2022/08/25 10:39:51;;;;;;;14.50;2.60;;;;;;;;;;108407;1307;22585;-25
2022/08/25 10:42:18;;;;;;;12.30;3.20;;;;;;;;;;108448;1299;22504;-28
2022/08/25 10:47:20;;;;;;;30.30;4.80;;;;;;;;;;108369;1299;22580;-24
2022/08/25 10:49:47;;;;;;;6.00;2.50;;;;;;;;;;108080;1299;23129;-24
2022/08/25 10:52:25;;;;;;;25.20;3.10;;;;;;;;;;108491;1303;22542;-28
2022/08/25 10:55:00;;;;;;;14.20;3.10;;;;;;;;;;108860;1294;22723;-24
2022/08/25 10:57:34;;;;;;;21.40;3.00;;;;;;;;;;108642;1303;22533;-25
2022/08/25 11:00:04;;;;;;;12.40;2.40;;;;;;;;;;108823;1294;23142;-28
2022/08/25 11:02:33;;;;;;;9.90;3.00;;;;;;;;;;108739;1295;22537;-25
2022/08/25 11:05:02;;;;;;;7.00;2.40;;;;;;;;;;108634;1294;23148;-24
2022/08/25 11:07:30;;;;;;;15.00;3.20;;;;;;;;;;108284;1282;22403;-24
2022/08/25 11:09:56;;;;;;;18.10;3.20;;;;;;;;;;108832;1295;23202;-28
2022/08/25 11:12:25;;;;;;;5.00;1.70;;;;;;;;;;108787;1294;22530;-24
2022/08/25 11:14:52;;;;;;;12.90;2.60;;;;;;;;;;108757;1295;22586;-24
2022/08/25 11:17:19;;;;;;;15.20;3.60;;;;;;;;;;108794;1294;22546;-24
2022/08/25 11:19:49;;;;;;;13.10;2.80;;;;;;;;;;108663;1295;23676;-28
2022/08/25 11:22:18;;;;;;;15.50;3.60;;;;;;;;;;108127;1295;25194;-28
2022/08/25 11:24:47;;;;;;;26.80;3.00;;;;;;;;;;107732;1287;25214;-24
2022/08/25 11:27:16;;;;;;;5.70;2.20;;;;;;;;;;108625;1295;23245;-24
2022/08/25 11:29:42;;;;;;;11.00;2.50;;;;;;;;;;108628;1295;22448;-24
2022/08/25 11:32:08;;;;;;;6.70;2.10;;;;;;;;;;108651;1295;22100;-24
2022/08/25 11:34:34;;;;;;;18.20;3.10;;;;;;;;;;108652;1295;22594;-28
2022/08/25 11:37:06;;;;;;;17.90;3.20;;;;;;;;;;108689;1298;23198;-28
2022/08/25 11:39:35;;;;;;;14.30;2.70;;;;;;;;;;108832;1294;22462;-24
2022/08/25 11:42:21;;;;;;;12.60;3.30;;;;;;;;;;108780;1295;23022;-24
2022/08/25 11:44:50;;;;;;;15.10;3.10;;;;;;;;;;108607;1303;23204;-28
2022/08/25 11:47:19;;;;;;;25.10;3.20;;;;;;;;;;108814;1295;22382;-28
2022/08/25 11:49:49;;;;;;;17.40;4.20;;;;;;;;;;108808;1295;23406;-28
2022/08/25 11:52:18;;;;;;;15.70;3.20;;;;;;;;;;108594;1294;23207;-28
2022/08/25 11:54:43;;;;;;;15.00;2.30;;;;;;;;;;108713;1294;22877;-28
2022/08/25 11:57:16;;;;;;;20.30;3.30;;;;;;;;;;108831;1294;22593;-24
2022/08/25 11:59:45;;;;;;;11.60;2.00;;;;;;;;;;108667;1294;22295;-28
2022/08/25 12:02:16;;;;;;;14.80;3.70;;;;;;;;;;108807;1303;22390;-28
2022/08/25 12:04:42;;;;;;;26.00;3.30;;;;;;;;;;108631;1294;23615;-28
2022/08/25 12:07:09;;;;;;;21.10;3.30;;;;;;;;;;108823;1294;22271;-24
2022/08/25 12:09:38;;;;;;;13.20;2.40;;;;;;;;;;108818;1294;22559;-28
2022/08/25 12:12:07;;;;;;;40.00;3.30;;;;;;;;;;108605;1302;22727;-24
2022/08/25 12:14:35;;;;;;;18.50;2.70;;;;;;;;;;108821;1295;22461;-28
2022/08/25 12:17:04;;;;;;;15.10;2.10;;;;;;;;;;108782;1295;23397;-24
2022/08/25 12:19:33;;;;;;;24.40;3.40;;;;;;;;;;108811;1295;22413;-24
2022/08/25 12:22:20;;;;;;;9.90;3.00;;;;;;;;;;108640;1293;22512;-28
2022/08/25 12:24:50;;;;;;;16.10;2.30;;;;;;;;;;108805;1295;23399;-28
2022/08/25 12:27:19;;;;;;;18.80;3.40;;;;;;;;;;108809;1294;22985;-28
2022/08/25 12:29:46;;;;;;;24.70;3.80;;;;;;;;;;108703;1295;22588;-28
2022/08/25 12:32:15;;;;;;;17.60;2.50;;;;;;;;;;108828;1295;22386;-24
2022/08/25 12:34:42;;;;;;;22.00;3.30;;;;;;;;;;108811;1295;23078;-29
2022/08/25 12:37:12;;;;;;;32.20;4.80;;;;;;;;;;108791;1294;22417;-24
2022/08/25 12:39:41;;;;;;;12.60;2.60;;;;;;;;;;108826;1280;23142;-24
2022/08/25 12:42:06;;;;;;;32.10;3.30;;;;;;;;;;108805;1295;22506;-28
2022/08/25 12:44:35;;;;;;;10.90;2.90;;;;;;;;;;108356;1295;23232;-27
2022/08/25 12:47:05;;;;;;;20.80;2.80;;;;;;;;;;108693;1294;22604;-28
2022/08/25 12:49:31;;;;;;;19.80;4.40;;;;;;;;;;108639;1303;22526;-28
2022/08/25 12:51:58;;;;;;;14.70;2.30;;;;;;;;;;108730;1294;23090;-28
2022/08/25 12:54:31;;;;;;;15.20;2.60;;;;;;;;;;108689;1296;22546;-24
2022/08/25 12:56:58;;;;;;;25.10;3.00;;;;;;;;;;108809;1295;22538;-28
2022/08/25 12:59:27;;;;;;;24.40;2.50;;;;;;;;;;108692;1302;22514;-28
2022/08/25 13:01:57;;;;;;;38.00;4.30;;;;;;;;;;107965;1295;23215;-24
2022/08/25 13:04:26;;;;;;;28.80;2.80;;;;;;;;;;108707;1302;23163;-28
2022/08/25 13:06:56;;;;;;;15.60;2.80;;;;;;;;;;108799;1295;22773;-24
2022/08/25 13:09:26;;;;;;;36.40;4.20;;;;;;;;;;108758;1303;23258;-24
2022/08/25 13:11:55;;;;;;;18.70;3.40;;;;;;;;;;108743;1295;22526;-28
2022/08/25 13:14:21;;;;;;;18.80;2.90;;;;;;;;;;108812;1295;22886;-24
2022/08/25 13:16:49;;;;;;;15.00;3.50;;;;;;;;;;108799;1295;22556;-24
2022/08/25 13:19:17;;;;;;;8.20;2.20;;;;;;;;;;108702;1295;22438;-28
2022/08/25 13:21:43;;;;;;;23.90;4.00;;;;;;;;;;108547;1302;22515;-28
2022/08/25 13:24:11;;;;;;;18.40;5.20;;;;;;;;;;108523;1295;22532;-28
2022/08/25 13:26:38;;;;;;;24.50;3.50;;;;;;;;;;108768;1303;22606;-24
2022/08/25 13:29:07;;;;;;;16.40;2.90;;;;;;;;;;108387;1302;22454;-28
2022/08/25 13:31:33;;;;;;;25.90;4.40;;;;;;;;;;108593;1295;23264;-28
2022/08/25 13:34:01;;;;;;;11.60;3.30;;;;;;;;;;108300;1295;725781;-24
2022/08/25 13:39:07;;;;;;;24.00;4.80;;;;;;;;;;108804;1295;22535;-28
2022/08/25 13:41:32;;;;;;;13.70;3.90;;;;;;;;;;108792;1295;23298;-28
2022/08/25 13:43:58;;;;;;;19.60;2.70;;;;;;;;;;108710;1303;22615;-24
2022/08/25 13:46:23;;;;;;;29.10;3.00;;;;;;;;;;108799;1303;22532;-24
2022/08/25 13:48:50;;;;;;;13.40;3.00;;;;;;;;;;108710;1295;25253;-28
2022/08/25 13:51:19;;;;;;;11.10;3.70;;;;;;;;;;108704;1295;23144;-28
2022/08/25 13:53:47;;;;;;;20.50;3.90;;;;;;;;;;108364;1302;22519;-28
2022/08/25 13:56:14;;;;;;;24.20;3.40;;;;;;;;;;108822;1295;23228;-28
2022/08/25 13:58:42;;;;;;;37.20;4.70;;;;;;;;;;108611;1295;22542;-28
2022/08/25 14:01:11;;;;;;;32.00;3.80;;;;;;;;;;108399;1303;23330;-26
2022/08/25 14:03:39;;;;;;;18.50;2.60;;;;;;;;;;107565;1295;23276;-22
2022/08/25 14:06:04;;;;;;;10.00;4.70;;;;;;;;;;108677;1295;22385;-24
2022/08/25 14:08:32;;;;;;;28.60;5.90;;;;;;;;;;108865;1295;22443;-24
2022/08/25 14:11:01;;;;;;;14.40;3.10;;;;;;;;;;108487;1303;23256;-24
2022/08/25 14:13:28;;;;;;;13.30;3.40;;;;;;;;;;108626;1297;23180;-24
2022/08/25 14:15:54;;;;;;;17.90;3.00;;;;;;;;;;108847;1295;22347;-28
2022/08/25 14:18:21;;;;;;;24.20;3.10;;;;;;;;;;108843;1295;23350;-24
2022/08/25 14:20:49;;;;;;;8.60;4.50;;;;;;;;;;108774;1295;23220;-24
2022/08/25 14:23:16;;;;;;;10.80;3.30;;;;;;;;;;108743;1295;22477;-28
2022/08/25 14:25:43;;;;;;;26.60;4.40;;;;;;;;;;108832;1295;23248;-28
2022/08/25 14:28:10;;;;;;;11.10;2.70;;;;;;;;;;108837;1295;22569;-24